createdAt,value
2022-10-07T00:00:52.943Z,4.82
2022-10-07T00:03:22.293Z,5.05
2022-10-07T00:06:10.866Z,4.72
2022-10-07T00:08:39.085Z,5.53
2022-10-07T00:11:11.925Z,4.72
2022-10-07T00:13:40.619Z,5.57
2022-10-07T00:16:13.347Z,5.72
2022-10-07T00:18:41.388Z,4.30
2022-10-07T00:21:11.285Z,5.07
2022-10-07T00:23:39.166Z,5.15
2022-10-07T00:26:07.762Z,7.20
2022-10-07T00:28:36.274Z,6.30
2022-10-07T00:31:12.984Z,5.60
2022-10-07T00:33:40.704Z,5.10
2022-10-07T00:36:14.848Z,5.05
2022-10-07T00:38:41.726Z,5.03
2022-10-07T00:41:16.214Z,5.93
2022-10-07T00:43:42.831Z,4.97
2022-10-07T00:46:33.676Z,5.20
2022-10-07T00:49:04.105Z,5.15
2022-10-07T00:51:33.345Z,4.60
2022-10-07T00:54:02.488Z,5.93
2022-10-07T00:56:29.912Z,7.30
2022-10-07T00:58:59.003Z,5.47
2022-10-07T01:01:26.616Z,4.75
2022-10-07T01:03:54.347Z,5.03
2022-10-07T01:06:21.053Z,5.18
2022-10-07T01:08:52.863Z,4.72
2022-10-07T01:12:04.057Z,4.80
2022-10-07T01:15:01.231Z,4.40
2022-10-07T01:17:52.524Z,4.72
2022-10-07T01:20:19.107Z,4.25
2022-10-07T01:23:18.970Z,5.18
2022-10-07T01:26:21.031Z,4.95
2022-10-07T01:29:17.962Z,4.78
2022-10-07T01:32:01.577Z,5.05
2022-10-07T01:34:28.591Z,5.97
2022-10-07T01:36:59.551Z,5.35
2022-10-07T01:39:32.488Z,4.53
2022-10-07T01:41:59.732Z,4.97
2022-10-07T01:44:30.386Z,5.13
2022-10-07T01:46:58.668Z,4.90
2022-10-07T01:49:25.615Z,5.55
2022-10-07T01:52:04.944Z,5.07
2022-10-07T01:54:47.363Z,5.13
2022-10-07T02:02:53.122Z,6.30
2022-10-07T02:05:32.814Z,5.75
2022-10-07T02:08:39.643Z,5.50
2022-10-07T02:11:06.277Z,4.82
2022-10-07T02:13:47.300Z,5.20
2022-10-07T02:16:25.620Z,5.00
2022-10-07T02:18:53.705Z,5.10
2022-10-07T02:21:25.666Z,4.93
2022-10-07T02:23:54.765Z,5.60
2022-10-07T02:26:23.116Z,6.65
2022-10-07T02:28:52.925Z,5.75
2022-10-07T02:31:24.280Z,5.53
2022-10-07T02:33:54.083Z,6.27
2022-10-07T02:36:28.936Z,5.40
2022-10-07T02:38:56.297Z,6.10
2022-10-07T02:41:33.150Z,5.47
2022-10-07T02:44:22.071Z,5.25
2022-10-07T02:46:54.272Z,5.93
2022-10-07T02:49:23.537Z,16.48
2022-10-07T02:51:59.625Z,12.75
2022-10-07T02:54:32.761Z,8.00
2022-10-07T02:57:01.265Z,7.53
2022-10-07T02:59:29.482Z,8.63
2022-10-07T03:01:59.027Z,8.00
2022-10-07T03:04:25.964Z,7.35
2022-10-07T03:06:52.894Z,5.88
2022-10-07T03:09:19.567Z,7.05
2022-10-07T03:11:46.400Z,7.03
2022-10-07T03:14:13.012Z,8.73
2022-10-07T03:16:39.856Z,7.60
2022-10-07T03:19:06.498Z,7.38
2022-10-07T03:21:34.025Z,7.63
2022-10-07T03:24:04.877Z,8.55
2022-10-07T03:26:33.463Z,6.25
2022-10-07T03:29:01.297Z,6.90
2022-10-07T03:31:28.979Z,6.68
2022-10-07T03:33:57.066Z,6.55
2022-10-07T03:36:24.840Z,6.72
2022-10-07T03:38:52.047Z,7.40
2022-10-07T03:41:19.856Z,7.93
2022-10-07T03:43:46.660Z,8.32
2022-10-07T03:46:13.532Z,7.10
2022-10-07T03:48:40.196Z,8.95
2022-10-07T03:51:06.798Z,6.95
2022-10-07T03:53:33.405Z,7.40
2022-10-07T03:56:00.177Z,7.95
2022-10-07T03:58:27.140Z,7.43
2022-10-07T04:01:10.609Z,7.53
2022-10-07T04:03:37.232Z,9.15
2022-10-07T04:06:04.135Z,7.28
2022-10-07T04:08:32.994Z,7.55
2022-10-07T04:11:01.200Z,6.72
2022-10-07T04:13:28.616Z,6.97
2022-10-07T04:15:55.797Z,7.15
2022-10-07T04:18:22.782Z,6.63
2022-10-07T04:20:49.472Z,7.63
2022-10-07T04:23:17.123Z,7.93
2022-10-07T04:25:46.286Z,7.75
2022-10-07T04:28:19.168Z,9.20
2022-10-07T04:30:51.091Z,9.82
2022-10-07T04:33:22.203Z,7.22
2022-10-07T04:35:50.168Z,7.60
2022-10-07T04:38:18.316Z,9.00
2022-10-07T04:40:49.155Z,9.73
2022-10-07T04:43:21.309Z,8.07
2022-10-07T04:45:49.646Z,8.02
2022-10-07T04:48:21.293Z,7.07
2022-10-07T04:50:48.020Z,9.05
2022-10-07T04:53:16.782Z,8.20
2022-10-07T04:55:48.195Z,9.38
2022-10-07T04:58:16.231Z,10.10
2022-10-07T05:00:45.331Z,10.75
2022-10-07T05:03:14.056Z,11.55
2022-10-07T05:05:42.944Z,11.77
2022-10-07T05:08:10.556Z,11.68
2022-10-07T05:10:41.001Z,8.98
2022-10-07T05:13:12.415Z,10.80
2022-10-07T05:15:54.481Z,10.63
2022-10-07T05:18:22.789Z,11.27
2022-10-07T05:20:49.817Z,9.32
2022-10-07T05:23:18.677Z,8.23
2022-10-07T05:25:45.522Z,7.68
2022-10-07T05:28:13.907Z,7.25
2022-10-07T05:30:41.930Z,9.82
2022-10-07T05:33:10.083Z,7.80
2022-10-07T05:35:36.785Z,6.97
2022-10-07T05:38:03.502Z,6.68
2022-10-07T05:40:30.216Z,7.00
2022-10-07T05:42:57.521Z,6.40
2022-10-07T05:45:25.788Z,6.53
2022-10-07T05:47:53.034Z,7.32
2022-10-07T05:50:19.784Z,5.90
2022-10-07T05:52:46.519Z,6.93
2022-10-07T05:55:13.142Z,5.05
2022-10-07T05:57:40.040Z,4.40
2022-10-07T06:00:07.381Z,6.47
2022-10-07T06:02:34.378Z,5.95
2022-10-07T06:05:01.268Z,6.68
2022-10-07T06:07:29.684Z,6.07
2022-10-07T06:10:14.944Z,5.13
2022-10-07T06:13:00.435Z,4.47
2022-10-07T06:15:27.040Z,4.40
2022-10-07T06:17:53.688Z,4.60
2022-10-07T06:20:20.343Z,6.22
2022-10-07T06:22:47.208Z,6.00
2022-10-07T06:25:13.964Z,6.88
2022-10-07T06:27:40.696Z,5.57
2022-10-07T06:30:08.336Z,5.32
2022-10-07T06:32:34.975Z,7.50
2022-10-07T06:35:01.663Z,6.15
2022-10-07T06:37:32.178Z,5.57
2022-10-07T06:39:59.827Z,5.70
2022-10-07T06:42:26.653Z,4.75
2022-10-07T06:44:56.075Z,4.57
2022-10-07T06:47:22.759Z,4.78
2022-10-07T06:49:49.401Z,5.47
2022-10-07T06:52:16.176Z,4.95
2022-10-07T06:54:42.945Z,4.57
2022-10-07T06:57:26.701Z,4.63
2022-10-07T06:59:56.646Z,4.65
2022-10-07T07:02:25.650Z,4.47
2022-10-07T07:04:57.235Z,4.38
2022-10-07T07:07:24.915Z,4.00
2022-10-07T07:09:52.329Z,4.30
2022-10-07T07:12:18.987Z,4.50
2022-10-07T07:14:45.859Z,6.28
2022-10-07T07:17:12.557Z,4.43
2022-10-07T07:19:39.710Z,3.00
2022-10-07T07:22:07.087Z,3.30
2022-10-07T07:24:33.728Z,4.38
2022-10-07T07:27:00.751Z,3.45
2022-10-07T07:29:27.549Z,2.90
2022-10-07T07:31:54.901Z,3.10
2022-10-07T07:34:21.609Z,3.13
2022-10-07T07:36:51.940Z,3.10
2022-10-07T07:39:19.980Z,3.70
2022-10-07T07:41:47.930Z,3.60
2022-10-07T07:44:18.059Z,2.25
2022-10-07T07:46:49.194Z,2.38
2022-10-07T07:49:16.775Z,2.10
2022-10-07T07:51:43.659Z,2.47
2022-10-07T07:54:12.113Z,2.42
2022-10-07T07:56:39.733Z,2.65
2022-10-07T07:59:08.301Z,2.33
2022-10-07T08:01:35.776Z,2.33
2022-10-07T08:04:04.241Z,1.73
2022-10-07T08:06:31.610Z,2.10
2022-10-07T08:08:59.228Z,2.53
2022-10-07T08:11:27.075Z,1.73
2022-10-07T08:13:56.435Z,1.92
2022-10-07T08:16:25.964Z,2.13
2022-10-07T08:18:54.297Z,2.40
2022-10-07T08:21:22.955Z,1.98
2022-10-07T08:23:54.798Z,1.88
2022-10-07T08:26:21.695Z,2.08
2022-10-07T08:28:49.224Z,2.15
2022-10-07T08:31:18.976Z,2.10
2022-10-07T08:33:48.149Z,2.17
2022-10-07T08:36:20.438Z,1.73
2022-10-07T08:38:50.443Z,2.28
2022-10-07T08:41:26.257Z,1.60
2022-10-07T08:43:52.799Z,1.83
2022-10-07T08:46:25.067Z,2.40
2022-10-07T08:49:15.741Z,1.75
2022-10-07T08:51:48.699Z,2.00
2022-10-07T08:54:19.732Z,1.85
2022-10-07T08:56:49.085Z,1.70
2022-10-07T08:59:33.041Z,1.83
2022-10-07T09:02:18.519Z,1.80
2022-10-07T09:05:00.328Z,1.63
2022-10-07T09:07:36.989Z,1.80
2022-10-07T09:10:09.783Z,2.03
2022-10-07T09:12:44.401Z,2.15
2022-10-07T09:15:23.659Z,1.73
2022-10-07T09:18:02.529Z,1.70
2022-10-07T09:20:36.759Z,1.98
2022-10-07T09:23:05.704Z,1.85
2022-10-07T09:25:34.981Z,1.70
2022-10-07T09:28:01.639Z,2.15
2022-10-07T09:30:29.801Z,1.77
2022-10-07T09:32:58.514Z,2.10
2022-10-07T09:35:27.294Z,1.90
2022-10-07T09:37:58.552Z,1.38
2022-10-07T09:40:57.949Z,1.70
2022-10-07T09:43:26.198Z,2.28
2022-10-07T09:45:53.423Z,2.13
2022-10-07T09:48:33.479Z,2.20
2022-10-07T09:51:13.837Z,2.50
2022-10-07T09:53:58.860Z,1.98
2022-10-07T09:56:54.855Z,1.60
2022-10-07T09:59:27.451Z,1.40
2022-10-07T10:02:00.225Z,1.60
2022-10-07T10:04:37.955Z,1.88
2022-10-07T10:07:19.568Z,1.73
2022-10-07T10:09:57.464Z,1.27
2022-10-07T10:12:25.763Z,1.48
2022-10-07T10:14:54.805Z,1.27
2022-10-07T10:17:26.977Z,1.33
2022-10-07T10:19:53.915Z,1.20
2022-10-07T10:22:30.572Z,1.30
2022-10-07T10:25:16.320Z,1.17
2022-10-07T10:28:01.754Z,1.80
2022-10-07T10:30:30.387Z,1.10
2022-10-07T10:33:40.595Z,1.33
2022-10-07T10:36:17.781Z,1.40
2022-10-07T10:38:47.138Z,1.38
2022-10-07T10:41:35.605Z,1.35
2022-10-07T10:44:22.591Z,1.05
2022-10-07T10:47:04.180Z,1.10
2022-10-07T10:49:36.843Z,1.02
2022-10-07T10:52:18.160Z,1.17
2022-10-07T10:54:56.853Z,1.77
2022-10-07T10:57:46.179Z,2.75
2022-10-07T11:00:23.646Z,0.93
2022-10-07T11:02:59.714Z,1.13
2022-10-07T11:05:38.518Z,1.05
2022-10-07T11:08:37.068Z,1.30
2022-10-07T11:11:09.001Z,1.25
2022-10-07T11:14:00.187Z,1.20
2022-10-07T11:16:47.064Z,1.02
2022-10-07T11:19:35.805Z,1.15
2022-10-07T11:22:03.459Z,1.23
2022-10-07T11:24:40.733Z,1.60
2022-10-07T11:27:25.888Z,1.05
2022-10-07T11:30:19.340Z,1.30
2022-10-07T11:33:04.845Z,1.35
2022-10-07T11:35:37.678Z,1.30
2022-10-07T11:38:10.062Z,1.08
2022-10-07T11:40:51.485Z,1.33
2022-10-07T11:43:29.381Z,1.08
2022-10-07T11:46:01.657Z,1.13
2022-10-07T11:48:42.903Z,1.35
2022-10-07T11:51:18.210Z,1.13
2022-10-07T11:53:45.236Z,1.45
2022-10-07T11:56:44.379Z,1.50
2022-10-07T11:59:29.324Z,1.23
2022-10-07T12:01:56.271Z,1.20
2022-10-07T12:04:35.476Z,1.25
2022-10-07T12:07:34.983Z,1.30
2022-10-07T12:10:04.986Z,1.27
2022-10-07T12:12:47.677Z,0.85
2022-10-07T12:15:26.706Z,1.40
2022-10-07T12:17:57.208Z,1.80
2022-10-07T12:20:52.749Z,1.00
2022-10-07T12:23:29.570Z,0.90
2022-10-07T12:26:00.550Z,1.38
2022-10-07T12:28:36.642Z,1.00
2022-10-07T12:31:26.370Z,1.05
2022-10-07T12:33:58.567Z,1.13
2022-10-07T12:36:27.851Z,1.05
2022-10-07T12:38:57.545Z,1.25
2022-10-07T12:41:40.158Z,1.75
2022-10-07T12:44:25.709Z,1.60
2022-10-07T12:47:19.235Z,1.13
2022-10-07T12:50:02.554Z,1.02
2022-10-07T12:52:56.829Z,1.20
2022-10-07T12:55:31.789Z,1.33
2022-10-07T12:58:17.934Z,1.20
2022-10-07T13:01:11.917Z,1.23
2022-10-07T13:03:53.733Z,1.38
2022-10-07T13:06:40.989Z,1.20
2022-10-07T13:09:19.812Z,1.17
2022-10-07T13:12:10.090Z,1.05
2022-10-07T13:14:46.043Z,1.20
2022-10-07T13:17:25.021Z,1.67
2022-10-07T13:20:15.669Z,1.00
2022-10-07T13:22:50.173Z,1.13
2022-10-07T13:25:20.494Z,1.60
2022-10-07T13:27:54.788Z,2.85
2022-10-07T13:30:42.047Z,1.10
2022-10-07T13:33:28.371Z,1.05
2022-10-07T13:36:18.333Z,1.33
2022-10-07T13:38:47.330Z,1.00
2022-10-07T13:41:24.517Z,1.10
2022-10-07T13:43:54.912Z,1.23
2022-10-07T13:46:25.232Z,1.02
2022-10-07T13:48:55.156Z,1.20
2022-10-07T13:51:30.687Z,1.42
2022-10-07T13:53:59.886Z,1.33
2022-10-07T13:56:41.088Z,1.40
2022-10-07T13:59:16.020Z,1.50
2022-10-07T14:01:43.273Z,1.33
2022-10-07T14:04:22.058Z,1.42
2022-10-07T14:06:56.066Z,1.10
2022-10-07T14:09:31.997Z,1.45
2022-10-07T14:12:07.236Z,1.30
2022-10-07T14:14:38.539Z,1.45
2022-10-07T14:17:21.113Z,1.40
2022-10-07T14:19:59.172Z,1.50
2022-10-07T14:22:39.116Z,1.13
2022-10-07T14:25:16.897Z,1.08
2022-10-07T14:27:47.221Z,1.75
2022-10-07T14:30:55.819Z,1.92
2022-10-07T14:34:08.976Z,1.50
2022-10-07T14:36:36.238Z,1.40
2022-10-07T14:39:23.374Z,1.60
2022-10-07T14:41:50.034Z,1.90
2022-10-07T14:44:18.308Z,1.48
2022-10-07T14:46:44.948Z,1.45
2022-10-07T14:49:11.893Z,1.35
2022-10-07T14:51:38.869Z,1.67
2022-10-07T14:54:07.438Z,1.50
2022-10-07T14:56:36.669Z,2.03
2022-10-07T14:59:03.378Z,1.40
2022-10-07T15:01:30.115Z,1.42
2022-10-07T15:03:57.987Z,2.22
2022-10-07T15:06:25.258Z,2.25
2022-10-07T15:08:51.972Z,1.85
2022-10-07T15:11:21.160Z,1.85
2022-10-07T15:13:50.140Z,1.63
2022-10-07T15:16:20.224Z,1.60
2022-10-07T15:18:52.180Z,1.40
2022-10-07T15:21:20.484Z,1.98
2022-10-07T15:23:54.228Z,2.17
2022-10-07T15:26:24.508Z,1.85
2022-10-07T15:28:56.805Z,1.85
2022-10-07T15:31:26.257Z,1.58
2022-10-07T15:33:57.382Z,2.00
2022-10-07T15:36:26.162Z,1.80
2022-10-07T15:38:53.454Z,1.80
2022-10-07T15:41:46.242Z,1.77
2022-10-07T15:44:22.110Z,1.98
2022-10-07T15:46:52.667Z,1.98
2022-10-07T15:49:19.494Z,2.00
2022-10-07T15:51:46.942Z,1.63
2022-10-07T15:54:13.817Z,2.03
2022-10-07T15:56:41.608Z,1.85
2022-10-07T15:59:08.687Z,1.75
2022-10-07T16:01:35.821Z,2.08
2022-10-07T16:04:03.781Z,2.45
2022-10-07T16:06:33.793Z,2.05
2022-10-07T16:09:01.107Z,2.22
2022-10-07T16:11:29.175Z,2.22
2022-10-07T16:13:56.156Z,2.50
2022-10-07T16:16:25.526Z,2.72
2022-10-07T16:18:54.139Z,3.38
2022-10-07T16:21:23.873Z,2.83
2022-10-07T16:23:55.027Z,2.25
2022-10-07T16:26:24.586Z,3.58
2022-10-07T16:29:10.858Z,3.30
2022-10-07T16:31:42.614Z,3.00
2022-10-07T16:34:11.431Z,2.88
2022-10-07T16:36:42.234Z,2.90
2022-10-07T16:39:11.856Z,2.83
2022-10-07T16:41:41.908Z,3.35
2022-10-07T16:44:09.452Z,3.00
2022-10-07T16:46:37.030Z,3.58
2022-10-07T16:49:08.599Z,4.30
2022-10-07T16:51:37.255Z,4.15
2022-10-07T16:54:13.023Z,4.82
2022-10-07T16:56:44.152Z,6.45
2022-10-07T16:59:13.336Z,3.25
2022-10-07T17:01:40.414Z,3.38
2022-10-07T17:04:08.213Z,3.53
2022-10-07T17:06:35.148Z,3.05
2022-10-07T17:09:04.648Z,5.32
2022-10-07T17:11:36.631Z,3.20
2022-10-07T17:14:17.878Z,3.60
2022-10-07T17:16:49.958Z,3.67
2022-10-07T17:19:20.450Z,3.58
2022-10-07T17:21:49.196Z,2.95
2022-10-07T17:24:17.367Z,2.92
2022-10-07T17:26:45.456Z,3.10
2022-10-07T17:29:14.748Z,2.88
2022-10-07T17:31:43.544Z,3.00
2022-10-07T17:34:11.923Z,3.92
2022-10-07T17:36:39.404Z,3.22
2022-10-07T17:39:06.550Z,3.00
2022-10-07T17:41:38.404Z,2.95
2022-10-07T17:44:11.080Z,4.10
2022-10-07T17:46:39.528Z,4.15
2022-10-07T17:49:08.599Z,3.78
2022-10-07T17:51:37.435Z,4.45
2022-10-07T17:54:06.045Z,4.03
2022-10-07T17:56:34.332Z,3.63
2022-10-07T17:59:01.421Z,4.45
2022-10-07T18:01:31.114Z,4.28
2022-10-07T18:04:00.249Z,3.70
2022-10-07T18:06:31.261Z,5.53
2022-10-07T18:09:03.205Z,4.68
2022-10-07T18:11:49.256Z,4.63
2022-10-07T18:14:34.594Z,4.18
2022-10-07T18:17:01.352Z,3.47
2022-10-07T18:19:29.651Z,5.38
2022-10-07T18:21:56.786Z,6.15
2022-10-07T18:24:27.640Z,6.68
2022-10-07T18:26:59.473Z,5.32
2022-10-07T18:29:31.647Z,5.82
2022-10-07T18:32:00.650Z,6.05
2022-10-07T18:34:27.443Z,7.05
2022-10-07T18:36:56.933Z,7.97
2022-10-07T18:39:25.274Z,7.05
2022-10-07T18:41:51.968Z,5.85
2022-10-07T18:44:19.866Z,6.30
2022-10-07T18:46:46.442Z,5.00
2022-10-07T18:49:13.942Z,3.67
2022-10-07T18:51:41.052Z,3.97
2022-10-07T18:54:07.815Z,6.57
2022-10-07T18:56:38.418Z,5.07
2022-10-07T18:59:07.814Z,5.63
2022-10-07T19:01:34.592Z,5.72
2022-10-07T19:04:02.562Z,4.90
2022-10-07T19:06:31.431Z,5.93
2022-10-07T19:09:00.393Z,4.82
2022-10-07T19:11:29.412Z,4.80
2022-10-07T19:13:58.993Z,4.40
2022-10-07T19:16:34.522Z,5.47
2022-10-07T19:19:04.244Z,7.13
2022-10-07T19:21:32.207Z,8.68
2022-10-07T19:24:01.831Z,6.22
2022-10-07T19:26:35.271Z,7.72
2022-10-07T19:29:02.890Z,8.15
2022-10-07T19:31:32.345Z,7.75
2022-10-07T19:34:02.325Z,8.65
2022-10-07T19:36:35.174Z,9.50
2022-10-07T19:39:02.306Z,8.23
2022-10-07T19:41:31.474Z,8.05
2022-10-07T19:43:58.599Z,9.43
2022-10-07T19:46:28.317Z,10.43
2022-10-07T19:48:58.311Z,8.98
2022-10-07T19:51:27.327Z,13.98
2022-10-07T19:54:00.001Z,8.55
2022-10-07T19:56:29.150Z,8.68
2022-10-07T19:58:57.841Z,9.00
2022-10-07T20:01:27.196Z,7.72
2022-10-07T20:03:59.269Z,9.05
2022-10-07T20:06:26.736Z,7.60
2022-10-07T20:08:54.146Z,8.63
2022-10-07T20:11:20.887Z,8.07
2022-10-07T20:13:48.253Z,7.03
2022-10-07T20:16:18.168Z,6.90
2022-10-07T20:18:47.255Z,7.00
2022-10-07T20:21:20.672Z,9.50
2022-10-07T20:23:48.568Z,11.93
2022-10-07T20:26:19.143Z,8.48
2022-10-07T20:28:52.467Z,7.13
2022-10-07T20:31:22.299Z,7.43
2022-10-07T20:33:51.947Z,7.35
2022-10-07T20:36:21.611Z,7.18
2022-10-07T20:39:31.815Z,6.43
2022-10-07T20:42:17.374Z,7.10
2022-10-07T20:44:44.189Z,6.88
2022-10-07T20:47:10.965Z,9.68
2022-10-07T20:49:41.451Z,6.28
2022-10-07T20:52:17.408Z,6.55
2022-10-07T20:54:45.509Z,6.68
2022-10-07T20:57:13.973Z,6.55
2022-10-07T20:59:40.694Z,8.27
2022-10-07T21:02:09.653Z,7.40
2022-10-07T21:04:37.439Z,7.22
2022-10-07T21:07:04.454Z,6.18
2022-10-07T21:09:36.232Z,6.65
2022-10-07T21:12:05.172Z,6.13
2022-10-07T21:14:31.847Z,8.68
2022-10-07T21:16:59.028Z,7.40
2022-10-07T21:19:25.914Z,6.80
2022-10-07T21:21:52.919Z,5.90
2022-10-07T21:24:19.788Z,7.38
2022-10-07T21:26:47.056Z,7.90
2022-10-07T21:29:14.368Z,6.57
2022-10-07T21:31:42.370Z,6.55
2022-10-07T21:34:10.175Z,10.38
2022-10-07T21:36:40.818Z,6.70
2022-10-07T21:39:07.561Z,4.65
2022-10-07T21:41:35.653Z,4.35
2022-10-07T21:44:04.566Z,4.85
2022-10-07T21:46:32.707Z,5.32
2022-10-07T21:48:59.827Z,5.38
2022-10-07T21:51:27.441Z,6.53
2022-10-07T21:53:55.602Z,6.10
2022-10-07T21:56:22.252Z,6.65
2022-10-07T21:58:53.359Z,8.05
2022-10-07T22:01:22.825Z,4.78
2022-10-07T22:03:54.352Z,5.82
2022-10-07T22:06:21.656Z,6.25
2022-10-07T22:08:49.569Z,6.22
2022-10-07T22:11:19.780Z,7.95
2022-10-07T22:13:55.039Z,9.18
2022-10-07T22:16:22.975Z,13.55
2022-10-07T22:18:52.005Z,11.95
2022-10-07T22:21:21.286Z,12.18
2022-10-07T22:23:50.591Z,13.18
2022-10-07T22:26:19.178Z,10.88
2022-10-07T22:28:48.564Z,13.18
2022-10-07T22:31:16.247Z,11.98
2022-10-07T22:33:44.400Z,11.13
2022-10-07T22:36:13.369Z,9.07
2022-10-07T22:38:43.501Z,10.18
2022-10-07T22:41:14.054Z,17.80
2022-10-07T22:43:46.836Z,15.20
2022-10-07T22:46:16.780Z,9.15
2022-10-07T22:48:44.382Z,9.02
2022-10-07T22:51:13.304Z,9.27
2022-10-07T22:53:46.567Z,10.52
2022-10-07T22:56:16.671Z,9.32
2022-10-07T22:58:51.053Z,7.00
2022-10-07T23:01:18.149Z,7.63
2022-10-07T23:03:45.785Z,7.53
2022-10-07T23:06:18.030Z,7.45
2022-10-07T23:08:45.983Z,8.75
2022-10-07T23:11:16.126Z,6.90
2022-10-07T23:13:42.872Z,8.32
2022-10-07T23:16:12.554Z,6.95
2022-10-07T23:18:42.655Z,6.82
2022-10-07T23:21:18.275Z,6.72
2022-10-07T23:23:48.003Z,7.47
2022-10-07T23:26:18.926Z,7.35
2022-10-07T23:28:50.404Z,6.93
2022-10-07T23:31:19.000Z,7.10
2022-10-07T23:33:47.841Z,7.05
2022-10-07T23:36:16.109Z,6.53
2022-10-07T23:38:46.007Z,6.78
2022-10-07T23:41:14.705Z,7.68
2022-10-07T23:43:41.680Z,7.53
2022-10-07T23:46:13.284Z,7.15
2022-10-07T23:48:41.179Z,7.78
2022-10-07T23:51:10.247Z,7.95
2022-10-07T23:53:36.883Z,8.38
2022-10-07T23:56:03.696Z,7.82
2022-10-07T23:58:31.429Z,7.68
